Time;durP1;ratioP1;P1;durP2;ratioP2;P2;SDS_P1;SDS_P2;PMS_P1;PMS_P2;Temp;Humidity;BMP_temperature;BMP_pressure;BME280_temperature;BME280_humidity;BME280_pressure;Samples;Min_cycle;Max_cycle;Signal;HPM_P1;HPM_P2
2021/01/14 00:01:27;;;;;;;9.50;6.28;;;;;;;21.34;35.71;98029.48;1811309;79;21177;-10
2021/01/14 00:03:54;;;;;;;6.87;6.08;;;;;;;21.37;35.71;98036.34;1788497;79;21407;-10
2021/01/14 00:06:22;;;;;;;8.25;6.15;;;;;;;21.40;35.73;98028.00;1816161;77;21147;-10
2021/01/14 00:08:50;;;;;;;8.65;7.05;;;;;;;21.43;35.73;98029.03;1791000;78;21155;-10
2021/01/14 00:11:17;;;;;;;10.00;5.80;;;;;;;21.44;35.76;98032.05;1789787;77;21144;-10
2021/01/14 00:13:45;;;;;;;7.00;5.87;;;;;;;21.46;36.26;98032.73;1829073;77;21352;-8
2021/01/14 00:16:12;;;;;;;7.10;5.72;;;;;;;21.46;36.32;98030.88;1804297;78;21573;-9
2021/01/14 00:18:39;;;;;;;7.22;5.90;;;;;;;21.44;36.30;98024.86;1829744;77;21196;-9
2021/01/14 00:21:07;;;;;;;10.10;6.58;;;;;;;21.42;36.32;98021.51;1810370;77;21105;-9
2021/01/14 00:23:34;;;;;;;9.78;6.10;;;;;;;21.39;36.37;98021.81;1846077;77;21140;-9
2021/01/14 00:26:03;;;;;;;7.85;6.35;;;;;;;21.37;36.46;98030.98;1812036;78;21136;-9
2021/01/14 00:28:30;;;;;;;9.73;6.05;;;;;;;21.34;36.49;98032.16;1833077;77;21109;-9
2021/01/14 00:30:58;;;;;;;6.97;5.90;;;;;;;21.31;36.60;98027.12;1823242;78;21195;-9
2021/01/14 00:33:25;;;;;;;8.08;5.70;;;;;;;21.30;36.68;98029.44;1784986;78;21158;-9
2021/01/14 00:35:52;;;;;;;10.48;6.22;;;;;;;21.28;36.74;98029.63;1774390;78;21142;-9
2021/01/14 00:38:20;;;;;;;8.30;5.60;;;;;;;21.28;36.84;98035.45;1800792;78;21191;-8
2021/01/14 00:40:48;;;;;;;8.45;5.72;;;;;;;21.27;36.91;98028.45;1828299;77;21567;-8
2021/01/14 00:43:16;;;;;;;8.35;5.67;;;;;;;21.26;36.94;98022.74;1836678;77;21173;-8
2021/01/14 00:45:43;;;;;;;5.75;5.20;;;;;;;21.25;37.04;98022.39;1828151;77;21162;-8
2021/01/14 00:48:11;;;;;;;11.63;5.70;;;;;;;21.24;37.13;98020.73;1828194;77;21142;-9
2021/01/14 00:50:39;;;;;;;6.75;5.92;;;;;;;21.24;37.23;98018.05;1823278;78;21683;-9
2021/01/14 00:53:07;;;;;;;10.00;5.25;;;;;;;21.24;37.36;98017.55;1812272;77;21584;-9
2021/01/14 00:55:34;;;;;;;6.15;5.55;;;;;;;21.25;37.49;98016.56;1834425;77;21201;-8
2021/01/14 00:58:02;;;;;;;7.92;5.45;;;;;;;21.25;37.56;98033.09;1828127;77;21614;-9
2021/01/14 01:00:30;;;;;;;7.75;5.62;;;;;;;21.25;37.63;98039.30;1807679;77;21161;-8
2021/01/14 01:02:59;;;;;;;7.03;4.83;;;;;;;21.25;37.70;98029.94;1825772;78;21183;-8
2021/01/14 01:05:26;;;;;;;8.33;4.90;;;;;;;21.26;37.80;98029.43;1825893;77;21296;-8
2021/01/14 01:10:33;;;;;;;7.90;5.17;;;;;;;21.30;37.95;98028.10;1837904;76;22762;-8
2021/01/14 01:13:01;;;;;;;6.17;5.28;;;;;;;21.27;38.09;98031.12;1762850;79;21670;-8
2021/01/14 01:15:30;;;;;;;5.90;4.97;;;;;;;21.28;38.11;98031.44;1761693;79;21178;-9
2021/01/14 01:17:58;;;;;;;7.75;5.75;;;;;;;21.29;38.19;98029.12;1788436;79;21174;-9
2021/01/14 01:20:26;;;;;;;8.15;5.50;;;;;;;21.27;38.27;98021.76;1759677;79;21098;-9
2021/01/14 01:22:56;;;;;;;5.72;5.10;;;;;;;21.28;38.36;98030.97;1757774;80;21831;-9
2021/01/14 01:25:23;;;;;;;7.37;4.92;;;;;;;21.29;38.38;98029.12;1758728;80;21170;-8
2021/01/14 01:27:51;;;;;;;6.80;4.80;;;;;;;21.28;38.41;98030.97;1762772;79;21241;-8
2021/01/14 01:30:20;;;;;;;6.90;5.25;;;;;;;21.29;38.40;98027.78;1783884;79;21195;-8
2021/01/14 01:32:49;;;;;;;5.22;4.72;;;;;;;21.29;38.42;98033.13;1788436;79;21179;-9
2021/01/14 01:35:17;;;;;;;7.72;4.90;;;;;;;21.29;38.43;98034.47;1812947;79;21178;-9
2021/01/14 01:37:44;;;;;;;8.60;5.35;;;;;;;21.29;38.43;98027.27;1779299;79;21185;-9
2021/01/14 01:40:15;;;;;;;5.30;4.80;;;;;;;21.29;38.48;98039.82;1755903;79;22011;-9
2021/01/14 01:42:42;;;;;;;5.12;4.62;;;;;;;21.30;38.51;98042.34;1744578;79;21148;-9
2021/01/14 01:45:14;;;;;;;5.42;4.53;;;;;;;21.31;38.53;98031.12;1786611;79;21632;-9
2021/01/14 01:47:42;;;;;;;5.92;5.00;;;;;;;21.32;38.55;98039.51;1784069;79;21101;-9
2021/01/14 01:50:11;;;;;;;5.87;4.67;;;;;;;21.32;38.52;98031.48;1784988;79;21179;-9
2021/01/14 01:52:41;;;;;;;6.62;4.53;;;;;;;21.32;38.54;98030.97;1759583;80;21153;-9
2021/01/14 01:55:12;;;;;;;5.17;4.58;;;;;;;21.32;38.52;98034.16;1760103;79;21662;-9
2021/01/14 01:57:39;;;;;;;5.85;4.95;;;;;;;21.33;38.53;98027.80;1749693;81;21192;-9
2021/01/14 02:00:09;;;;;;;13.65;5.17;;;;;;;21.33;38.53;98029.13;1794131;80;21164;-9
2021/01/14 02:02:36;;;;;;;6.92;4.60;;;;;;;21.34;38.56;98032.16;1777207;80;21147;-9
2021/01/14 02:05:06;;;;;;;4.90;4.08;;;;;;;21.34;38.60;98029.48;1739729;79;23499;-9
2021/01/14 02:07:51;;;;;;;5.62;4.60;;;;;;;21.34;38.62;98029.48;1766416;80;21677;-9
2021/01/14 02:10:44;;;;;;;8.25;4.30;;;;;;;21.34;38.66;98041.02;1723076;79;21646;-9
2021/01/14 02:13:52;;;;;;;6.28;4.90;;;;;;;21.34;38.63;98037.51;1732125;81;21168;-12
2021/01/14 02:16:20;;;;;;;4.42;4.03;;;;;;;21.35;38.66;98041.87;1755360;80;21585;-9
2021/01/14 02:18:47;;;;;;;6.30;4.53;;;;;;;21.36;38.68;98049.39;1715368;81;21226;-9
2021/01/14 02:21:15;;;;;;;4.67;4.22;;;;;;;21.36;38.71;98043.53;1728600;82;21591;-9
2021/01/14 02:24:09;;;;;;;5.75;4.25;;;;;;;21.36;38.74;98043.53;1711559;82;21161;-9
2021/01/14 02:26:38;;;;;;;9.53;4.35;;;;;;;21.35;38.78;98044.55;1740863;80;21196;-9
2021/01/14 02:29:05;;;;;;;9.60;4.72;;;;;;;21.36;38.78;98046.20;1725484;82;21174;-9
2021/01/14 02:31:33;;;;;;;5.22;4.72;;;;;;;21.36;38.82;98050.22;1717906;82;22227;-9
2021/01/14 02:34:00;;;;;;;6.10;4.05;;;;;;;21.38;38.87;98042.87;1722943;82;21190;-9
2021/01/14 02:36:28;;;;;;;8.20;4.58;;;;;;;21.39;38.91;98039.21;1717277;81;21169;-9
2021/01/14 02:38:55;;;;;;;5.62;4.53;;;;;;;21.39;38.96;98040.55;1743702;81;21767;-9
2021/01/14 02:41:23;;;;;;;4.67;4.22;;;;;;;21.39;39.03;98043.22;1754615;81;21116;-9
2021/01/14 02:43:50;;;;;;;5.47;4.85;;;;;;;21.39;39.11;98040.55;1748793;80;21372;-9
2021/01/14 02:46:21;;;;;;;4.40;4.03;;;;;;;21.40;39.17;98031.53;1714277;82;21168;-9
2021/01/14 02:49:07;;;;;;;4.87;4.30;;;;;;;21.42;39.21;98027.36;1724463;81;21127;-9
2021/01/14 02:51:51;;;;;;;5.80;4.30;;;;;;;21.43;39.29;98025.02;1733820;81;21230;-9
2021/01/14 02:54:18;;;;;;;8.13;4.58;;;;;;;21.43;39.32;98025.84;1751902;81;21167;-9
2021/01/14 02:56:50;;;;;;;7.75;4.35;;;;;;;21.44;39.39;98024.03;1733456;81;21236;-9
2021/01/14 02:59:17;;;;;;;7.42;4.58;;;;;;;21.44;39.44;98020.84;1719306;81;21175;-9
2021/01/14 03:01:46;;;;;;;10.10;4.12;;;;;;;21.45;39.45;98021.19;1752659;80;21184;-9
2021/01/14 03:04:13;;;;;;;9.40;4.40;;;;;;;21.45;39.61;98026.55;1723075;81;21127;-9
2021/01/14 03:06:41;;;;;;;7.05;4.45;;;;;;;21.47;39.65;98021.07;1750947;81;21120;-9
2021/01/14 03:09:08;;;;;;;4.75;4.20;;;;;;;21.48;39.65;98023.55;1724858;81;22172;-9
2021/01/14 03:11:36;;;;;;;8.88;4.45;;;;;;;21.50;39.64;98022.92;1728973;81;21183;-9
2021/01/14 03:14:03;;;;;;;7.47;4.40;;;;;;;21.51;39.62;98020.56;1752587;80;21414;-9
2021/01/14 03:16:37;;;;;;;8.78;4.33;;;;;;;21.51;39.59;98024.58;1750289;81;21157;-9
2021/01/14 03:19:04;;;;;;;14.70;4.10;;;;;;;21.54;39.61;98029.30;1706711;80;21176;-9
2021/01/14 03:21:32;;;;;;;11.63;4.22;;;;;;;21.54;39.58;98026.63;1721525;81;22063;-9
2021/01/14 03:24:00;;;;;;;8.15;4.80;;;;;;;21.55;39.57;98026.44;1735366;81;21135;-9
2021/01/14 03:26:27;;;;;;;4.78;4.28;;;;;;;21.55;39.50;98021.59;1775359;80;21164;-9
2021/01/14 03:28:55;;;;;;;8.15;4.80;;;;;;;21.56;39.53;98019.27;1740271;80;21633;-10
2021/01/14 03:31:22;;;;;;;6.53;4.20;;;;;;;21.56;39.50;98024.63;1775148;80;21203;-9
2021/01/14 03:33:50;;;;;;;4.40;3.90;;;;;;;21.55;39.47;98023.77;1774135;80;22263;-9
2021/01/14 03:36:19;;;;;;;7.53;4.60;;;;;;;21.56;39.50;98025.95;1709116;81;21175;-9
2021/01/14 03:38:47;;;;;;;5.30;4.50;;;;;;;21.57;39.48;98020.92;1746851;80;21171;-9
2021/01/14 03:41:18;;;;;;;6.12;3.92;;;;;;;21.57;39.48;98023.60;1748064;80;21743;-9
2021/01/14 03:43:46;;;;;;;11.43;4.53;;;;;;;21.58;39.49;98030.65;1766424;79;21601;-9
2021/01/14 03:49:02;;;;;;;23.30;12.15;;;;;;;21.62;37.50;98023.96;1756512;79;22870;-8
2021/01/14 03:51:29;;;;;;;19.65;10.58;;;;;;;21.51;37.87;98031.78;1735088;80;21679;-8
2021/01/14 03:53:56;;;;;;;16.32;10.72;;;;;;;21.44;38.12;98028.87;1704553;82;21656;-8
2021/01/14 03:56:23;;;;;;;15.98;10.78;;;;;;;21.42;38.04;98036.22;1742059;80;21205;-8
2021/01/14 03:58:51;;;;;;;16.10;10.38;;;;;;;21.40;37.67;98032.02;1758228;80;21662;-8
2021/01/14 04:01:23;;;;;;;19.65;10.38;;;;;;;21.39;37.52;98033.86;1730230;81;21163;-8
2021/01/14 04:03:50;;;;;;;19.87;10.20;;;;;;;21.37;37.47;98029.65;1740812;79;21152;-8
2021/01/14 04:06:20;;;;;;;15.28;10.03;;;;;;;21.36;37.28;98032.83;1742450;81;23582;-8
2021/01/14 04:08:47;;;;;;;18.87;9.35;;;;;;;21.34;37.28;98031.65;1751693;81;21135;-8
2021/01/14 04:11:14;;;;;;;13.43;9.75;;;;;;;21.33;37.15;98027.80;1747961;79;21174;-8
2021/01/14 04:13:42;;;;;;;13.35;9.75;;;;;;;21.30;37.10;98019.60;1721448;81;21613;-8
2021/01/14 04:16:13;;;;;;;17.75;9.55;;;;;;;21.30;36.95;98028.10;1747304;81;21179;-8
2021/01/14 04:18:41;;;;;;;12.70;9.50;;;;;;;21.28;36.76;98022.08;1748026;81;21373;-8
2021/01/14 04:21:08;;;;;;;15.98;10.10;;;;;;;21.26;36.83;98030.25;1723448;81;21222;-9
2021/01/14 04:23:36;;;;;;;19.85;10.18;;;;;;;21.25;36.79;98029.08;1740228;81;21572;-9
2021/01/14 04:26:04;;;;;;;14.38;10.30;;;;;;;21.23;36.80;98021.23;1745311;81;21176;-8
2021/01/14 04:28:32;;;;;;;12.10;9.75;;;;;;;21.23;36.80;98033.75;1732719;81;21219;-8
2021/01/14 04:30:59;;;;;;;17.30;10.32;;;;;;;21.21;36.75;98032.56;1752184;81;21212;-8
2021/01/14 04:33:26;;;;;;;14.60;10.70;;;;;;;21.19;36.66;98026.55;1731639;81;21232;-8
2021/01/14 04:35:59;;;;;;;17.87;10.43;;;;;;;21.18;36.56;98024.02;1682806;82;21234;-9
2021/01/14 04:38:28;;;;;;;17.20;10.23;;;;;;;21.17;36.61;98021.03;1760991;81;21136;-8
2021/01/14 04:41:03;;;;;;;12.88;10.03;;;;;;;21.14;36.54;98031.02;1724709;81;21116;-8
2021/01/14 04:43:33;;;;;;;13.22;9.95;;;;;;;21.13;36.51;98032.03;1751769;79;21176;-8
2021/01/14 04:46:11;;;;;;;19.75;11.20;;;;;;;21.10;36.44;98029.67;1749997;79;21187;-33
2021/01/14 04:48:45;;;;;;;13.08;10.63;;;;;;;21.10;36.32;98035.52;1772574;80;21183;-9
2021/01/14 04:51:16;;;;;;;21.53;10.53;;;;;;;21.07;36.25;98030.48;1754375;80;21115;-9
2021/01/14 04:53:46;;;;;;;15.00;11.18;;;;;;;21.04;36.18;98033.46;1781014;79;21175;-8
2021/01/14 04:56:16;;;;;;;11.95;9.78;;;;;;;21.03;36.21;98033.97;1779384;80;21361;-8
2021/01/14 04:58:49;;;;;;;13.65;10.03;;;;;;;21.01;36.09;98026.58;1707725;82;21153;-9
2021/01/14 05:01:25;;;;;;;;;;;;;;;20.99;36.08;98023.22;1775601;80;21196;-9
2021/01/14 05:03:54;;;;;;;14.85;10.75;;;;;;;20.98;36.01;98025.58;1742189;81;20214;-8
2021/01/14 05:06:23;;;;;;;12.98;9.98;;;;;;;20.96;35.87;98027.06;1705295;80;21183;-8
2021/01/14 05:08:56;;;;;;;13.62;10.38;;;;;;;20.94;35.92;98022.86;1765023;80;21354;-8
2021/01/14 05:11:25;;;;;;;13.60;11.30;;;;;;;20.93;35.83;98018.49;1774989;80;21206;-8
2021/01/14 05:13:53;;;;;;;13.58;11.20;;;;;;;20.91;35.78;98016.00;1732927;82;21176;-8
2021/01/14 05:16:20;;;;;;;13.38;10.98;;;;;;;20.89;35.65;98015.80;1771104;80;21203;-8
2021/01/14 05:18:47;;;;;;;13.60;10.93;;;;;;;20.88;35.64;98016.78;1714134;81;21148;-9
2021/01/14 05:21:16;;;;;;;14.07;11.38;;;;;;;20.87;35.53;98020.47;1764871;81;22230;-8
2021/01/14 05:23:43;;;;;;;21.50;11.40;;;;;;;20.86;35.54;98026.30;1715235;81;21184;-8
2021/01/14 05:26:11;;;;;;;15.53;11.48;;;;;;;20.85;35.48;98029.16;1746816;80;21171;-8
2021/01/14 05:28:38;;;;;;;15.35;11.28;;;;;;;20.84;35.44;98023.45;1741183;80;21187;-8
2021/01/14 05:31:19;;;;;;;14.80;11.55;;;;;;;20.82;35.28;98022.77;1782847;80;21668;-8
2021/01/14 05:33:57;;;;;;;12.95;10.88;;;;;;;20.80;35.27;98020.76;1741866;81;21160;-9
2021/01/14 05:36:25;;;;;;;16.35;12.25;;;;;;;20.77;35.17;98028.06;1738460;80;21219;-9
2021/01/14 05:38:53;;;;;;;15.35;11.63;;;;;;;20.75;35.22;98031.40;1745399;81;21116;-9
2021/01/14 05:41:24;;;;;;;13.93;11.33;;;;;;;20.74;35.07;98031.55;1773584;80;21143;-9
2021/01/14 05:43:56;;;;;;;16.48;11.88;;;;;;;20.73;35.05;98033.89;1723086;80;21550;-9
2021/01/14 05:46:28;;;;;;;14.55;11.97;;;;;;;20.71;34.96;98035.38;1781367;80;21211;-8
2021/01/14 05:48:58;;;;;;;15.80;12.60;;;;;;;20.70;35.02;98040.38;1754198;80;21152;-9
2021/01/14 05:51:33;;;;;;;17.12;12.35;;;;;;;20.69;34.94;98045.37;1762083;80;21613;-8
2021/01/14 05:54:03;;;;;;;;;;;;;;;20.68;34.99;98047.71;1767427;80;21175;-8
2021/01/14 05:56:41;;;;;;;15.40;11.48;;;;;;;20.67;35.02;98048.70;1724320;82;20214;-8
2021/01/14 05:59:16;;;;;;;18.10;12.88;;;;;;;20.66;34.99;98048.84;1752500;80;21191;-8
2021/01/14 06:01:58;;;;;;;16.65;12.10;;;;;;;20.66;34.95;98054.19;1728484;81;21179;-9
2021/01/14 06:04:30;;;;;;;14.18;11.80;;;;;;;20.65;34.87;98053.36;1749290;80;21159;-9
2021/01/14 06:07:02;;;;;;;14.13;11.60;;;;;;;20.63;34.95;98048.67;1763697;80;21172;-9
2021/01/14 06:09:29;;;;;;;14.05;11.68;;;;;;;20.63;34.94;98045.14;1748936;80;21203;-9
2021/01/14 06:12:11;;;;;;;12.63;11.28;;;;;;;20.61;34.96;98046.62;1758871;80;21346;-8
2021/01/14 06:14:39;;;;;;;12.90;11.38;;;;;;;20.61;34.87;98042.62;1731999;80;21204;-9
2021/01/14 06:17:09;;;;;;;16.20;11.45;;;;;;;20.60;34.96;98042.26;1770153;80;21128;-9
2021/01/14 06:19:36;;;;;;;15.35;12.23;;;;;;;20.59;34.92;98043.24;1791192;79;21668;-9
2021/01/14 06:22:04;;;;;;;14.87;11.20;;;;;;;20.60;34.89;98040.92;1772652;80;21121;-8
2021/01/14 06:24:37;;;;;;;14.07;11.18;;;;;;;20.59;34.88;98037.42;1710376;82;21565;-8
2021/01/14 06:27:09;;;;;;;12.63;10.70;;;;;;;20.59;34.89;98037.42;1771090;80;21097;-8
2021/01/14 06:29:42;;;;;;;18.77;11.18;;;;;;;20.59;34.89;98039.23;1742865;80;21136;-8
2021/01/14 06:32:18;;;;;;;36.30;11.10;;;;;;;20.58;35.46;98041.58;1741289;81;21181;-8
2021/01/14 06:34:50;;;;;;;22.10;10.05;;;;;;;20.57;35.50;98043.39;1762777;80;21578;-8
2021/01/14 06:37:23;;;;;;;27.82;10.05;;;;;;;20.59;35.60;98043.24;1754492;79;21636;-8
2021/01/14 06:39:56;;;;;;;19.10;10.15;;;;;;;20.58;35.70;98039.73;1765604;79;21281;-8
2021/01/14 06:42:33;;;;;;;20.55;10.50;;;;;;;20.58;35.59;98044.25;1732018;80;21184;-8
2021/01/14 06:45:09;;;;;;;13.70;9.48;;;;;;;20.58;35.45;98041.58;1663215;83;21609;-8
2021/01/14 06:47:43;;;;;;;17.15;9.95;;;;;;;20.56;35.48;98041.73;1735766;80;21136;-8
2021/01/14 06:50:25;;;;;;;17.75;9.55;;;;;;;20.57;35.55;98039.89;1766708;79;21365;-9
2021/01/14 06:53:02;;;;;;;15.32;9.78;;;;;;;20.57;35.43;98045.23;1761299;79;21120;-10
2021/01/14 06:55:36;;;;;;;14.87;9.88;;;;;;;20.58;35.50;98046.42;1769213;79;21140;-9
2021/01/14 06:58:16;;;;;;;16.55;9.83;;;;;;;20.58;35.73;98055.77;1762960;79;21180;-9
2021/01/14 07:00:48;;;;;;;25.77;15.32;;;;;;;20.61;35.58;98054.64;1764216;80;21171;-10
2021/01/14 07:03:22;;;;;;;22.52;13.88;;;;;;;20.55;34.15;98052.56;1766488;80;21577;-8
2021/01/14 07:05:58;;;;;;;23.87;14.45;;;;;;;20.47;33.77;98051.98;1758211;81;21172;-9
2021/01/14 07:08:43;;;;;;;19.95;12.70;;;;;;;20.48;34.08;98054.17;1758601;80;21131;-8
2021/01/14 07:11:17;;;;;;;16.70;12.60;;;;;;;20.51;34.29;98061.86;1750231;79;21664;-9
2021/01/14 07:13:46;;;;;;;18.10;12.88;;;;;;;20.55;34.63;98057.91;1734987;81;21223;-10
2021/01/14 07:16:17;;;;;;;19.82;12.35;;;;;;;20.58;34.73;98054.44;1714729;82;21207;-10
2021/01/14 07:18:44;;;;;;;14.55;11.63;;;;;;;20.63;34.61;98058.02;1721967;80;21190;-10
2021/01/14 07:21:35;;;;;;;16.97;11.93;;;;;;;20.67;34.66;98062.06;1759623;80;21632;-10
2021/01/14 07:24:19;;;;;;;17.10;11.35;;;;;;;20.71;34.63;98068.80;1726382;81;21152;-10
2021/01/14 07:26:51;;;;;;;16.55;11.08;;;;;;;20.76;34.61;98063.83;1718554;81;21183;-10
2021/01/14 07:29:19;;;;;;;13.95;11.03;;;;;;;20.81;34.64;98067.86;1762999;80;21289;-9
2021/01/14 07:31:52;;;;;;;17.55;10.90;;;;;;;20.86;34.91;98073.58;1746098;80;22331;-9
2021/01/14 07:34:40;;;;;;;17.20;10.63;;;;;;;20.88;34.79;98063.56;1722760;81;21644;-9
2021/01/14 07:37:17;;;;;;;12.85;10.43;;;;;;;20.90;34.54;98068.28;1748236;80;21668;-9
2021/01/14 07:39:53;;;;;;;14.68;11.10;;;;;;;20.92;34.76;98065.78;1759524;79;21160;-9
2021/01/14 07:42:26;;;;;;;15.72;10.95;;;;;;;20.95;34.73;98064.65;1737781;80;22095;-9
2021/01/14 07:45:02;;;;;;;15.78;10.78;;;;;;;20.98;34.69;98065.69;1680283;82;21196;-9
2021/01/14 07:47:38;;;;;;;14.60;10.18;;;;;;;20.99;34.56;98062.50;1687539;84;21202;-10
2021/01/14 07:50:27;;;;;;;13.98;10.82;;;;;;;21.00;34.29;98066.36;1759088;79;21183;-9
2021/01/14 07:52:58;;;;;;;14.65;10.88;;;;;;;21.02;34.17;98064.37;1734302;79;21100;-9
2021/01/14 07:58:21;;;;;;;14.38;11.25;;;;;;;21.05;34.07;98058.71;1805537;78;22374;-8
2021/01/14 08:01:06;;;;;;;16.95;10.90;;;;;;;21.02;34.01;98075.06;1772335;79;21161;-9
2021/01/14 08:03:38;;;;;;;16.55;11.25;;;;;;;21.02;34.20;98068.38;1779819;78;21358;-9
2021/01/14 08:06:30;;;;;;;12.90;10.78;;;;;;;21.03;33.99;98071.41;1821532;78;21131;-9
2021/01/14 08:09:09;;;;;;;14.47;10.50;;;;;;;21.04;34.04;98073.57;1751598;79;21192;-9
2021/01/14 08:11:49;;;;;;;18.10;10.78;;;;;;;21.06;34.18;98087.11;1786685;78;21121;-9
2021/01/14 08:14:23;;;;;;;18.37;11.35;;;;;;;21.07;34.75;98085.30;1780384;79;21128;-9
2021/01/14 08:16:55;;;;;;;16.02;11.53;;;;;;;21.06;34.32;98087.63;1768550;79;21356;-9
2021/01/14 08:19:33;;;;;;;18.37;10.75;;;;;;;21.08;34.35;98089.16;1752321;77;21210;-9
2021/01/14 08:22:07;;;;;;;16.62;10.15;;;;;;;21.09;34.83;98093.50;1796582;77;21629;-9
2021/01/14 08:24:48;;;;;;;14.85;10.85;;;;;;;21.12;34.85;98095.86;1749241;79;21216;-9
2021/01/14 08:27:32;;;;;;;22.13;16.48;;;;;;;21.14;34.72;98092.53;1809462;78;21101;-9
2021/01/14 08:30:20;;;;;;;35.95;22.48;;;;;;;20.98;31.97;98093.76;1753173;79;21230;-9
2021/01/14 08:32:53;;;;;;;32.78;19.75;;;;;;;20.69;32.01;98092.14;1746622;78;21136;-9
2021/01/14 08:35:31;;;;;;;27.45;17.70;;;;;;;20.64;32.70;98094.93;1783247;78;21208;-8
2021/01/14 08:38:11;;;;;;;25.12;18.45;;;;;;;20.66;33.34;98103.16;1770960;78;21207;-9
2021/01/14 08:40:40;;;;;;;26.42;17.00;;;;;;;20.70;33.17;98095.67;1774766;78;21585;-9
2021/01/14 08:45:56;;;;;;;25.20;16.70;;;;;;;20.86;33.91;98095.80;1760950;79;28104;-9
2021/01/14 08:48:29;;;;;;;27.10;15.90;;;;;;;20.89;34.08;98096.00;1691274;83;21181;-8
2021/01/14 08:51:02;;;;;;;19.40;14.93;;;;;;;20.98;34.05;98092.42;1744192;80;21632;-9
2021/01/14 08:53:37;;;;;;;20.30;15.00;;;;;;;21.04;34.31;98085.09;1765925;80;22323;-8
2021/01/14 08:56:08;;;;;;;19.27;14.78;;;;;;;21.11;34.43;98092.84;1734036;81;21184;-9
2021/01/14 08:58:48;;;;;;;24.90;16.23;;;;;;;21.18;34.49;98086.88;1732194;81;21172;-9
2021/01/14 09:01:22;;;;;;;18.82;13.62;;;;;;;21.22;34.25;98084.25;1716621;81;21173;-9
2021/01/14 09:03:52;;;;;;;20.65;12.65;;;;;;;21.25;34.61;98085.25;1765178;77;21775;-9
2021/01/14 09:06:39;;;;;;;24.52;13.28;;;;;;;21.26;35.21;98085.60;1786749;78;21252;-10
2021/01/14 09:09:15;;;;;;;18.57;12.88;;;;;;;21.27;35.24;98081.95;1775935;78;21196;-9
2021/01/14 09:11:42;;;;;;;16.62;12.55;;;;;;;21.29;35.26;98081.28;1780481;78;21121;-9
2021/01/14 09:14:16;;;;;;;20.68;13.53;;;;;;;21.29;35.09;98075.42;1762474;80;21646;-9
2021/01/14 09:16:46;;;;;;;20.55;13.08;;;;;;;21.30;34.79;98072.24;1770992;77;21188;-9
2021/01/14 09:19:17;;;;;;;18.95;12.75;;;;;;;21.31;34.74;98073.94;1797815;77;21182;-10
2021/01/14 09:21:46;;;;;;;23.55;13.55;;;;;;;21.33;35.10;98062.57;1765689;78;21570;-9
2021/01/14 09:24:16;;;;;;;19.35;14.90;;;;;;;21.39;35.06;98067.81;1800611;77;21212;-9
2021/01/14 09:26:48;;;;;;;32.25;20.60;;;;;;;21.43;34.52;98071.83;1799747;78;21324;-10
2021/01/14 09:29:18;;;;;;;27.25;18.98;;;;;;;21.38;33.37;98070.96;1777051;77;21475;-10
2021/01/14 09:31:46;;;;;;;26.82;18.55;;;;;;;21.35;33.37;98069.97;1801245;78;21618;-10
2021/01/14 09:34:15;;;;;;;23.22;17.35;;;;;;;21.35;33.65;98069.97;1774472;77;21223;-9
2021/01/14 09:36:43;;;;;;;22.82;16.48;;;;;;;21.35;33.75;98071.30;1806333;78;21157;-10
2021/01/14 09:39:15;;;;;;;26.40;17.92;;;;;;;21.36;33.92;98070.28;1813817;77;21137;-10
2021/01/14 09:41:42;;;;;;;28.25;18.55;;;;;;;21.37;33.92;98071.98;1697769;82;21291;-10
2021/01/14 09:46:49;;;;;;;27.37;17.82;;;;;;;21.46;34.08;98064.33;1750297;79;22850;-10
2021/01/14 09:49:21;;;;;;;26.60;16.85;;;;;;;21.42;33.88;98066.99;1692507;82;21139;-9
2021/01/14 09:51:51;;;;;;;21.85;16.42;;;;;;;21.44;34.24;98067.66;1717479;80;21670;-9
2021/01/14 09:54:20;;;;;;;21.50;15.25;;;;;;;21.46;34.58;98077.70;1715402;82;21159;-9
2021/01/14 09:56:55;;;;;;;21.65;14.85;;;;;;;21.50;34.76;98075.11;1731241;80;21182;-9
2021/01/14 09:59:41;;;;;;;20.50;14.28;;;;;;;21.52;34.76;98075.78;1732352;82;21182;-9
2021/01/14 10:02:28;;;;;;;22.80;14.47;;;;;;;21.57;35.38;98071.77;1753929;80;21123;-9
2021/01/14 10:05:03;;;;;;;22.93;12.43;;;;;;;21.64;35.87;98067.48;1750994;80;22787;-10
2021/01/14 10:07:34;;;;;;;18.07;11.93;;;;;;;21.69;36.30;98059.82;1720642;80;21255;-9
2021/01/14 10:10:06;;;;;;;17.80;11.97;;;;;;;21.74;36.67;98065.53;1753789;80;21059;-9
2021/01/14 10:12:33;;;;;;;21.97;11.97;;;;;;;21.78;36.95;98065.53;1726291;82;21178;-10
2021/01/14 10:15:13;;;;;;;18.10;12.00;;;;;;;21.83;37.24;98060.54;1703581;81;21136;-10
2021/01/14 10:17:45;;;;;;;18.75;11.57;;;;;;;21.87;37.47;98057.89;1748964;79;21292;-10
2021/01/14 10:20:16;;;;;;;17.45;11.43;;;;;;;21.93;37.64;98066.28;1698483;82;21254;-10
2021/01/14 10:22:53;;;;;;;20.92;11.35;;;;;;;21.97;37.73;98064.95;1748051;79;21633;-9
2021/01/14 10:25:21;;;;;;;18.57;10.53;;;;;;;22.02;37.90;98065.30;1757990;81;21195;-9
2021/01/14 10:28:06;;;;;;;21.20;13.95;;;;;;;22.06;37.86;98064.00;1738973;81;21200;-9
2021/01/14 10:30:40;;;;;;;23.98;13.25;;;;;;;22.09;37.07;98056.98;1801724;78;21229;-10
2021/01/14 10:33:08;;;;;;;25.20;14.58;;;;;;;22.08;36.23;98056.63;1749078;80;21127;-9
2021/01/14 10:35:36;;;;;;;40.50;20.25;;;;;;;22.02;34.56;98050.57;1774174;79;21600;-8
2021/01/14 10:38:10;;;;;;;24.92;15.20;;;;;;;21.94;34.36;98049.20;1762209;77;21048;-10
2021/01/14 10:40:44;;;;;;;20.80;15.60;;;;;;;21.88;34.25;98052.86;1773821;79;21115;-10
2021/01/14 10:43:14;;;;;;;23.98;15.03;;;;;;;21.84;34.88;98048.84;1785841;78;21593;-9
2021/01/14 10:45:43;;;;;;;24.55;14.90;;;;;;;21.83;35.29;98040.46;1742479;80;21200;-10
2021/01/14 10:48:14;;;;;;;22.48;13.48;;;;;;;21.88;35.81;98044.00;1725739;81;21205;-9
2021/01/14 10:50:50;;;;;;;20.77;13.15;;;;;;;21.92;35.97;98043.17;1753973;79;21636;-10
2021/01/14 10:53:26;;;;;;;23.92;12.85;;;;;;;21.99;36.18;98041.52;1752761;80;21136;-10
2021/01/14 10:56:12;;;;;;;25.55;13.58;;;;;;;22.07;36.17;98035.72;1769096;80;21354;-9
2021/01/14 10:58:40;;;;;;;18.55;12.37;;;;;;;22.15;36.20;98037.56;1770229;79;21202;-9
2021/01/14 11:01:19;;;;;;;19.23;12.78;;;;;;;22.22;36.23;98031.88;1772374;79;21099;-9
2021/01/14 11:03:50;;;;;;;22.50;12.25;;;;;;;22.31;36.20;98038.62;1778039;79;21192;-10
2021/01/14 11:06:38;;;;;;;21.87;11.75;;;;;;;22.37;36.19;98029.44;1781352;79;21620;-9
2021/01/14 11:09:10;;;;;;;16.17;11.55;;;;;;;22.47;36.23;98033.82;1749579;80;21449;-9
2021/01/14 11:11:40;;;;;;;17.82;11.75;;;;;;;22.53;36.20;98031.31;1749818;80;21633;-9
2021/01/14 11:14:18;;;;;;;17.98;11.97;;;;;;;22.59;36.20;98024.44;1757833;80;21253;-9
2021/01/14 11:16:46;;;;;;;15.83;11.18;;;;;;;22.63;36.15;98021.78;1752556;79;21951;-9
2021/01/14 11:19:13;;;;;;;15.90;10.88;;;;;;;22.68;36.12;98021.26;1740589;80;21202;-9
2021/01/14 11:21:42;;;;;;;15.80;11.00;;;;;;;22.73;36.11;98017.09;1747469;80;21397;-9
2021/01/14 11:24:10;;;;;;;21.17;11.83;;;;;;;22.78;36.07;98017.94;1745922;80;21175;-9
2021/01/14 11:26:38;;;;;;;17.25;10.95;;;;;;;22.82;36.06;98011.22;1761583;79;21207;-10
2021/01/14 11:29:05;;;;;;;14.93;11.05;;;;;;;22.86;36.03;98015.23;1739114;79;21151;-9
2021/01/14 11:31:32;;;;;;;15.48;11.48;;;;;;;22.90;36.02;98016.58;1750945;80;21709;-9
2021/01/14 11:34:00;;;;;;;14.73;10.90;;;;;;;22.93;36.00;98008.20;1756855;79;21168;-9
2021/01/14 11:36:27;;;;;;;16.15;10.68;;;;;;;22.96;35.99;98015.92;1762680;79;21593;-9
2021/01/14 11:38:55;;;;;;;17.77;10.95;;;;;;;22.99;36.00;98012.88;1750294;79;21214;-9
2021/01/14 11:41:25;;;;;;;14.43;10.28;;;;;;;23.02;35.97;98013.05;1747437;80;21147;-9
2021/01/14 11:43:51;;;;;;;14.00;10.78;;;;;;;23.05;36.00;98015.88;1745488;79;21182;-9
2021/01/14 11:46:24;;;;;;;13.75;10.45;;;;;;;23.07;36.05;98011.24;1767264;79;21274;-9
2021/01/14 11:48:53;;;;;;;13.40;10.58;;;;;;;23.10;36.05;98009.53;1740181;81;21205;-9
2021/01/14 11:51:20;;;;;;;13.30;10.03;;;;;;;23.11;35.97;98016.59;1722700;80;21192;-9
2021/01/14 11:53:51;;;;;;;16.02;11.22;;;;;;;23.12;35.91;98012.91;1754444;81;21185;-9
2021/01/14 11:56:19;;;;;;;29.50;17.67;;;;;;;23.14;35.81;98013.57;1704048;81;21191;-9
2021/01/14 11:58:47;;;;;;;26.05;15.83;;;;;;;23.14;34.55;98013.57;1726128;82;21214;-9
2021/01/14 12:01:14;;;;;;;22.62;14.20;;;;;;;23.05;33.93;98010.52;1719051;81;21225;-9
2021/01/14 12:03:42;;;;;;;24.87;14.70;;;;;;;22.99;34.50;98006.17;1745961;81;21178;-9